sensor_id;sensor_type;location;lat;lon;timestamp;P1;durP1;ratioP1;P2;durP2;ratioP2
28762;SDS011;15918;51.270;6.522;2022-08-24T00:02:22;4.93;;;2.80;;
28762;SDS011;15918;51.270;6.522;2022-08-24T00:04:48;2.65;;;2.28;;
28762;SDS011;15918;51.270;6.522;2022-08-24T00:07:15;6.00;;;2.67;;
28762;SDS011;15918;51.270;6.522;2022-08-24T00:09:41;4.88;;;2.60;;
28762;SDS011;15918;51.270;6.522;2022-08-24T00:12:07;5.15;;;2.88;;
28762;SDS011;15918;51.270;6.522;2022-08-24T00:14:33;4.18;;;2.97;;
28762;SDS011;15918;51.270;6.522;2022-08-24T00:16:59;6.68;;;2.90;;
28762;SDS011;15918;51.270;6.522;2022-08-24T00:19:26;3.20;;;2.60;;
28762;SDS011;15918;51.270;6.522;2022-08-24T00:21:53;3.63;;;2.53;;
28762;SDS011;15918;51.270;6.522;2022-08-24T00:24:18;7.10;;;2.67;;
28762;SDS011;15918;51.270;6.522;2022-08-24T00:26:45;4.43;;;3.08;;
28762;SDS011;15918;51.270;6.522;2022-08-24T00:29:15;6.03;;;3.30;;
28762;SDS011;15918;51.270;6.522;2022-08-24T00:31:41;6.10;;;3.40;;
28762;SDS011;15918;51.270;6.522;2022-08-24T00:34:07;3.22;;;2.53;;
28762;SDS011;15918;51.270;6.522;2022-08-24T00:36:33;4.45;;;2.80;;
28762;SDS011;15918;51.270;6.522;2022-08-24T00:38:59;4.60;;;2.55;;
28762;SDS011;15918;51.270;6.522;2022-08-24T00:41:26;3.72;;;2.78;;
28762;SDS011;15918;51.270;6.522;2022-08-24T00:43:54;6.22;;;2.85;;
28762;SDS011;15918;51.270;6.522;2022-08-24T00:46:23;6.72;;;2.83;;
28762;SDS011;15918;51.270;6.522;2022-08-24T00:49:17;6.20;;;2.75;;
28762;SDS011;15918;51.270;6.522;2022-08-24T00:54:35;4.85;;;2.60;;
28762;SDS011;15918;51.270;6.522;2022-08-24T00:57:03;4.80;;;2.40;;
28762;SDS011;15918;51.270;6.522;2022-08-24T00:59:36;4.03;;;2.78;;
28762;SDS011;15918;51.270;6.522;2022-08-24T01:02:08;3.33;;;2.25;;
28762;SDS011;15918;51.270;6.522;2022-08-24T01:04:39;4.03;;;2.53;;
28762;SDS011;15918;51.270;6.522;2022-08-24T01:07:11;3.95;;;2.80;;
28762;SDS011;15918;51.270;6.522;2022-08-24T01:09:37;3.88;;;2.63;;
28762;SDS011;15918;51.270;6.522;2022-08-24T01:12:02;2.90;;;2.40;;
28762;SDS011;15918;51.270;6.522;2022-08-24T01:14:28;5.32;;;3.03;;
28762;SDS011;15918;51.270;6.522;2022-08-24T01:16:54;4.78;;;3.40;;
28762;SDS011;15918;51.270;6.522;2022-08-24T01:19:42;3.58;;;2.88;;
28762;SDS011;15918;51.270;6.522;2022-08-24T01:22:14;3.42;;;2.60;;
28762;SDS011;15918;51.270;6.522;2022-08-24T01:24:44;5.28;;;2.80;;
28762;SDS011;15918;51.270;6.522;2022-08-24T01:27:11;3.47;;;2.63;;
28762;SDS011;15918;51.270;6.522;2022-08-24T01:29:38;3.70;;;2.55;;
28762;SDS011;15918;51.270;6.522;2022-08-24T01:32:06;3.10;;;2.80;;
28762;SDS011;15918;51.270;6.522;2022-08-24T01:34:33;4.55;;;2.63;;
28762;SDS011;15918;51.270;6.522;2022-08-24T01:36:58;4.30;;;3.03;;
28762;SDS011;15918;51.270;6.522;2022-08-24T01:39:33;4.05;;;2.80;;
28762;SDS011;15918;51.270;6.522;2022-08-24T01:42:01;4.10;;;2.83;;
28762;SDS011;15918;51.270;6.522;2022-08-24T01:44:29;5.22;;;3.10;;
28762;SDS011;15918;51.270;6.522;2022-08-24T01:46:58;5.05;;;3.10;;
28762;SDS011;15918;51.270;6.522;2022-08-24T01:49:26;3.28;;;2.90;;
28762;SDS011;15918;51.270;6.522;2022-08-24T01:51:54;4.70;;;2.80;;
28762;SDS011;15918;51.270;6.522;2022-08-24T01:54:20;3.97;;;2.88;;
28762;SDS011;15918;51.270;6.522;2022-08-24T01:56:46;4.82;;;3.13;;
28762;SDS011;15918;51.270;6.522;2022-08-24T01:59:12;5.28;;;3.00;;
28762;SDS011;15918;51.270;6.522;2022-08-24T02:01:39;4.72;;;3.22;;
28762;SDS011;15918;51.270;6.522;2022-08-24T02:04:08;3.65;;;2.60;;
28762;SDS011;15918;51.270;6.522;2022-08-24T02:06:34;4.50;;;3.22;;
28762;SDS011;15918;51.270;6.522;2022-08-24T02:09:00;5.25;;;3.13;;
28762;SDS011;15918;51.270;6.522;2022-08-24T02:11:25;5.45;;;3.03;;
28762;SDS011;15918;51.270;6.522;2022-08-24T02:13:52;3.88;;;2.83;;
28762;SDS011;15918;51.270;6.522;2022-08-24T02:16:17;3.95;;;3.03;;
28762;SDS011;15918;51.270;6.522;2022-08-24T02:18:43;4.78;;;3.10;;
28762;SDS011;15918;51.270;6.522;2022-08-24T02:21:10;4.47;;;2.60;;
28762;SDS011;15918;51.270;6.522;2022-08-24T02:23:36;4.32;;;2.83;;
28762;SDS011;15918;51.270;6.522;2022-08-24T02:26:04;6.78;;;2.72;;
28762;SDS011;15918;51.270;6.522;2022-08-24T02:28:31;4.00;;;3.00;;
28762;SDS011;15918;51.270;6.522;2022-08-24T02:30:57;3.05;;;2.63;;
28762;SDS011;15918;51.270;6.522;2022-08-24T02:33:23;4.80;;;2.90;;
28762;SDS011;15918;51.270;6.522;2022-08-24T02:35:49;5.30;;;3.25;;
28762;SDS011;15918;51.270;6.522;2022-08-24T02:38:15;6.47;;;2.90;;
28762;SDS011;15918;51.270;6.522;2022-08-24T02:40:41;4.82;;;3.00;;
28762;SDS011;15918;51.270;6.522;2022-08-24T02:43:07;3.55;;;3.00;;
28762;SDS011;15918;51.270;6.522;2022-08-24T02:45:36;5.90;;;3.10;;
28762;SDS011;15918;51.270;6.522;2022-08-24T02:48:07;7.03;;;3.38;;
28762;SDS011;15918;51.270;6.522;2022-08-24T02:50:36;10.55;;;3.10;;
28762;SDS011;15918;51.270;6.522;2022-08-24T02:53:03;4.35;;;3.60;;
28762;SDS011;15918;51.270;6.522;2022-08-24T02:55:29;4.82;;;2.83;;
28762;SDS011;15918;51.270;6.522;2022-08-24T02:57:54;7.47;;;3.67;;
28762;SDS011;15918;51.270;6.522;2022-08-24T03:00:20;4.18;;;3.00;;
28762;SDS011;15918;51.270;6.522;2022-08-24T03:02:46;4.72;;;3.08;;
28762;SDS011;15918;51.270;6.522;2022-08-24T03:05:12;4.32;;;3.03;;
28762;SDS011;15918;51.270;6.522;2022-08-24T03:07:39;5.68;;;3.15;;
28762;SDS011;15918;51.270;6.522;2022-08-24T03:10:05;6.00;;;3.05;;
28762;SDS011;15918;51.270;6.522;2022-08-24T03:12:31;6.57;;;3.15;;
28762;SDS011;15918;51.270;6.522;2022-08-24T03:14:58;3.28;;;2.97;;
28762;SDS011;15918;51.270;6.522;2022-08-24T03:17:26;4.03;;;2.88;;
28762;SDS011;15918;51.270;6.522;2022-08-24T03:19:54;4.60;;;3.30;;
28762;SDS011;15918;51.270;6.522;2022-08-24T03:22:20;6.70;;;3.95;;
28762;SDS011;15918;51.270;6.522;2022-08-24T03:24:46;3.78;;;3.00;;
28762;SDS011;15918;51.270;6.522;2022-08-24T03:27:12;4.97;;;3.28;;
28762;SDS011;15918;51.270;6.522;2022-08-24T03:29:38;4.47;;;3.08;;
28762;SDS011;15918;51.270;6.522;2022-08-24T03:32:04;3.58;;;2.78;;
28762;SDS011;15918;51.270;6.522;2022-08-24T03:34:30;5.30;;;2.75;;
28762;SDS011;15918;51.270;6.522;2022-08-24T03:36:55;5.20;;;3.30;;
28762;SDS011;15918;51.270;6.522;2022-08-24T03:39:21;4.45;;;3.55;;
28762;SDS011;15918;51.270;6.522;2022-08-24T03:41:47;4.53;;;2.90;;
28762;SDS011;15918;51.270;6.522;2022-08-24T03:44:12;5.72;;;3.28;;
28762;SDS011;15918;51.270;6.522;2022-08-24T03:46:38;5.93;;;2.90;;
28762;SDS011;15918;51.270;6.522;2022-08-24T03:49:05;6.20;;;2.95;;
28762;SDS011;15918;51.270;6.522;2022-08-24T03:51:35;5.03;;;3.00;;
28762;SDS011;15918;51.270;6.522;2022-08-24T03:54:02;4.82;;;3.28;;
28762;SDS011;15918;51.270;6.522;2022-08-24T03:56:29;5.10;;;3.40;;
28762;SDS011;15918;51.270;6.522;2022-08-24T03:58:55;3.53;;;2.92;;
28762;SDS011;15918;51.270;6.522;2022-08-24T04:01:21;3.95;;;2.70;;
28762;SDS011;15918;51.270;6.522;2022-08-24T04:03:47;4.22;;;3.10;;
28762;SDS011;15918;51.270;6.522;2022-08-24T04:06:15;4.57;;;3.28;;
28762;SDS011;15918;51.270;6.522;2022-08-24T04:08:42;5.40;;;3.30;;
28762;SDS011;15918;51.270;6.522;2022-08-24T04:11:12;6.22;;;3.60;;
28762;SDS011;15918;51.270;6.522;2022-08-24T04:13:40;5.43;;;3.55;;
28762;SDS011;15918;51.270;6.522;2022-08-24T04:16:10;3.88;;;2.72;;
28762;SDS011;15918;51.270;6.522;2022-08-24T04:18:38;4.47;;;3.25;;
28762;SDS011;15918;51.270;6.522;2022-08-24T04:21:04;4.38;;;3.17;;
28762;SDS011;15918;51.270;6.522;2022-08-24T04:23:31;5.10;;;3.30;;
28762;SDS011;15918;51.270;6.522;2022-08-24T04:26:01;3.40;;;3.10;;
28762;SDS011;15918;51.270;6.522;2022-08-24T04:28:29;4.88;;;3.50;;
28762;SDS011;15918;51.270;6.522;2022-08-24T04:30:55;7.03;;;3.58;;
28762;SDS011;15918;51.270;6.522;2022-08-24T04:33:21;6.82;;;3.63;;
28762;SDS011;15918;51.270;6.522;2022-08-24T04:35:47;4.88;;;3.78;;
28762;SDS011;15918;51.270;6.522;2022-08-24T04:38:14;4.68;;;3.55;;
28762;SDS011;15918;51.270;6.522;2022-08-24T04:40:42;8.35;;;3.72;;
28762;SDS011;15918;51.270;6.522;2022-08-24T04:43:09;5.50;;;3.80;;
28762;SDS011;15918;51.270;6.522;2022-08-24T04:45:39;6.30;;;4.00;;
28762;SDS011;15918;51.270;6.522;2022-08-24T04:48:06;6.15;;;4.05;;
28762;SDS011;15918;51.270;6.522;2022-08-24T04:50:35;4.82;;;3.95;;
28762;SDS011;15918;51.270;6.522;2022-08-24T04:53:03;5.95;;;3.85;;
28762;SDS011;15918;51.270;6.522;2022-08-24T04:55:29;7.28;;;3.75;;
28762;SDS011;15918;51.270;6.522;2022-08-24T04:57:55;6.13;;;3.78;;
28762;SDS011;15918;51.270;6.522;2022-08-24T05:00:20;5.13;;;3.75;;
28762;SDS011;15918;51.270;6.522;2022-08-24T05:02:47;9.30;;;3.85;;
28762;SDS011;15918;51.270;6.522;2022-08-24T05:05:13;7.32;;;3.92;;
28762;SDS011;15918;51.270;6.522;2022-08-24T05:07:39;5.07;;;4.22;;
28762;SDS011;15918;51.270;6.522;2022-08-24T05:10:05;7.03;;;3.85;;
28762;SDS011;15918;51.270;6.522;2022-08-24T05:12:32;5.93;;;4.13;;
28762;SDS011;15918;51.270;6.522;2022-08-24T05:14:57;4.97;;;4.07;;
28762;SDS011;15918;51.270;6.522;2022-08-24T05:17:24;5.57;;;4.00;;
28762;SDS011;15918;51.270;6.522;2022-08-24T05:19:51;12.07;;;4.00;;
28762;SDS011;15918;51.270;6.522;2022-08-24T05:22:16;6.57;;;4.10;;
28762;SDS011;15918;51.270;6.522;2022-08-24T05:24:42;6.00;;;4.47;;
28762;SDS011;15918;51.270;6.522;2022-08-24T05:27:08;6.72;;;3.85;;
28762;SDS011;15918;51.270;6.522;2022-08-24T05:29:34;6.63;;;3.90;;
28762;SDS011;15918;51.270;6.522;2022-08-24T05:32:00;7.82;;;4.00;;
28762;SDS011;15918;51.270;6.522;2022-08-24T05:34:26;8.15;;;4.30;;
28762;SDS011;15918;51.270;6.522;2022-08-24T05:36:51;4.97;;;3.70;;
28762;SDS011;15918;51.270;6.522;2022-08-24T05:39:17;5.60;;;3.75;;
28762;SDS011;15918;51.270;6.522;2022-08-24T05:41:44;6.35;;;3.85;;
28762;SDS011;15918;51.270;6.522;2022-08-24T05:44:11;6.47;;;4.05;;
28762;SDS011;15918;51.270;6.522;2022-08-24T05:46:38;6.75;;;4.47;;
28762;SDS011;15918;51.270;6.522;2022-08-24T05:49:04;4.85;;;4.22;;
28762;SDS011;15918;51.270;6.522;2022-08-24T05:51:30;5.35;;;4.25;;
28762;SDS011;15918;51.270;6.522;2022-08-24T05:53:56;9.60;;;5.00;;
28762;SDS011;15918;51.270;6.522;2022-08-24T05:56:23;7.95;;;5.03;;
28762;SDS011;15918;51.270;6.522;2022-08-24T05:58:48;9.70;;;5.28;;
28762;SDS011;15918;51.270;6.522;2022-08-24T06:01:15;8.50;;;6.03;;
28762;SDS011;15918;51.270;6.522;2022-08-24T06:03:46;10.43;;;5.93;;
28762;SDS011;15918;51.270;6.522;2022-08-24T06:06:13;7.63;;;6.25;;
28762;SDS011;15918;51.270;6.522;2022-08-24T06:08:41;9.63;;;6.40;;
28762;SDS011;15918;51.270;6.522;2022-08-24T06:11:10;8.00;;;6.38;;
28762;SDS011;15918;51.270;6.522;2022-08-24T06:13:37;10.75;;;6.88;;
28762;SDS011;15918;51.270;6.522;2022-08-24T06:16:08;9.65;;;6.55;;
28762;SDS011;15918;51.270;6.522;2022-08-24T06:18:35;11.10;;;5.70;;
28762;SDS011;15918;51.270;6.522;2022-08-24T06:21:03;14.20;;;6.43;;
28762;SDS011;15918;51.270;6.522;2022-08-24T06:23:40;9.52;;;5.57;;
28762;SDS011;15918;51.270;6.522;2022-08-24T06:26:09;12.55;;;6.60;;
28762;SDS011;15918;51.270;6.522;2022-08-24T06:31:20;11.32;;;5.80;;
28762;SDS011;15918;51.270;6.522;2022-08-24T06:33:48;10.93;;;5.75;;
28762;SDS011;15918;51.270;6.522;2022-08-24T06:36:14;15.02;;;6.32;;
28762;SDS011;15918;51.270;6.522;2022-08-24T06:38:40;9.60;;;6.88;;
28762;SDS011;15918;51.270;6.522;2022-08-24T06:41:06;10.23;;;6.50;;
28762;SDS011;15918;51.270;6.522;2022-08-24T06:43:32;13.05;;;6.72;;
28762;SDS011;15918;51.270;6.522;2022-08-24T06:45:58;12.18;;;6.10;;
28762;SDS011;15918;51.270;6.522;2022-08-24T06:48:24;14.43;;;6.32;;
28762;SDS011;15918;51.270;6.522;2022-08-24T06:50:50;12.88;;;7.15;;
28762;SDS011;15918;51.270;6.522;2022-08-24T06:53:17;14.85;;;6.13;;
28762;SDS011;15918;51.270;6.522;2022-08-24T06:55:48;11.07;;;5.90;;
28762;SDS011;15918;51.270;6.522;2022-08-24T06:58:15;14.50;;;6.18;;
28762;SDS011;15918;51.270;6.522;2022-08-24T07:00:43;13.05;;;6.22;;
28762;SDS011;15918;51.270;6.522;2022-08-24T07:03:09;13.30;;;5.80;;
28762;SDS011;15918;51.270;6.522;2022-08-24T07:05:35;9.25;;;5.32;;
28762;SDS011;15918;51.270;6.522;2022-08-24T07:08:02;10.50;;;5.97;;
28762;SDS011;15918;51.270;6.522;2022-08-24T07:10:28;13.50;;;6.28;;
28762;SDS011;15918;51.270;6.522;2022-08-24T07:12:54;12.02;;;6.72;;
28762;SDS011;15918;51.270;6.522;2022-08-24T07:15:20;11.20;;;5.70;;
28762;SDS011;15918;51.270;6.522;2022-08-24T07:17:46;10.90;;;4.85;;
28762;SDS011;15918;51.270;6.522;2022-08-24T07:20:12;8.32;;;4.72;;
28762;SDS011;15918;51.270;6.522;2022-08-24T07:22:38;8.05;;;4.47;;
28762;SDS011;15918;51.270;6.522;2022-08-24T07:25:04;9.35;;;4.88;;
28762;SDS011;15918;51.270;6.522;2022-08-24T07:27:32;9.00;;;4.88;;
28762;SDS011;15918;51.270;6.522;2022-08-24T07:29:58;10.57;;;5.38;;
28762;SDS011;15918;51.270;6.522;2022-08-24T07:32:23;10.77;;;5.20;;
28762;SDS011;15918;51.270;6.522;2022-08-24T07:34:49;7.45;;;4.75;;
28762;SDS011;15918;51.270;6.522;2022-08-24T07:37:15;7.30;;;4.25;;
28762;SDS011;15918;51.270;6.522;2022-08-24T07:39:40;10.40;;;4.72;;
28762;SDS011;15918;51.270;6.522;2022-08-24T07:42:06;10.50;;;4.85;;
28762;SDS011;15918;51.270;6.522;2022-08-24T07:44:32;11.60;;;4.60;;
28762;SDS011;15918;51.270;6.522;2022-08-24T07:46:58;9.85;;;4.57;;
28762;SDS011;15918;51.270;6.522;2022-08-24T07:49:23;7.00;;;5.05;;
28762;SDS011;15918;51.270;6.522;2022-08-24T07:51:50;10.15;;;4.68;;
28762;SDS011;15918;51.270;6.522;2022-08-24T07:54:17;9.23;;;5.32;;
28762;SDS011;15918;51.270;6.522;2022-08-24T07:56:44;7.50;;;4.50;;
28762;SDS011;15918;51.270;6.522;2022-08-24T07:59:10;7.40;;;4.25;;
28762;SDS011;15918;51.270;6.522;2022-08-24T08:01:36;10.70;;;4.60;;
28762;SDS011;15918;51.270;6.522;2022-08-24T08:04:02;11.25;;;5.03;;
28762;SDS011;15918;51.270;6.522;2022-08-24T08:06:28;8.32;;;5.18;;
28762;SDS011;15918;51.270;6.522;2022-08-24T08:08:54;10.38;;;4.55;;
28762;SDS011;15918;51.270;6.522;2022-08-24T08:11:20;9.35;;;4.38;;
28762;SDS011;15918;51.270;6.522;2022-08-24T08:13:45;8.18;;;5.43;;
28762;SDS011;15918;51.270;6.522;2022-08-24T08:16:11;7.10;;;4.15;;
28762;SDS011;15918;51.270;6.522;2022-08-24T08:18:37;8.02;;;4.32;;
28762;SDS011;15918;51.270;6.522;2022-08-24T08:21:03;14.27;;;4.95;;
28762;SDS011;15918;51.270;6.522;2022-08-24T08:23:29;8.50;;;4.63;;
28762;SDS011;15918;51.270;6.522;2022-08-24T08:26:16;9.35;;;5.47;;
28762;SDS011;15918;51.270;6.522;2022-08-24T08:28:44;9.50;;;4.38;;
28762;SDS011;15918;51.270;6.522;2022-08-24T08:31:10;7.75;;;4.78;;
28762;SDS011;15918;51.270;6.522;2022-08-24T08:33:36;10.90;;;4.60;;
28762;SDS011;15918;51.270;6.522;2022-08-24T08:36:06;12.85;;;4.95;;
28762;SDS011;15918;51.270;6.522;2022-08-24T08:38:35;8.65;;;4.45;;
28762;SDS011;15918;51.270;6.522;2022-08-24T08:41:06;8.70;;;4.82;;
28762;SDS011;15918;51.270;6.522;2022-08-24T08:46:26;9.07;;;4.85;;
28762;SDS011;15918;51.270;6.522;2022-08-24T08:51:58;6.35;;;4.07;;
28762;SDS011;15918;51.270;6.522;2022-08-24T08:57:41;10.70;;;4.82;;
28762;SDS011;15918;51.270;6.522;2022-08-24T09:00:27;12.20;;;4.75;;
28762;SDS011;15918;51.270;6.522;2022-08-24T09:03:19;10.63;;;5.07;;
28762;SDS011;15918;51.270;6.522;2022-08-24T09:06:01;9.40;;;4.50;;
28762;SDS011;15918;51.270;6.522;2022-08-24T09:08:57;8.32;;;4.72;;
28762;SDS011;15918;51.270;6.522;2022-08-24T09:14:44;7.35;;;4.40;;
28762;SDS011;15918;51.270;6.522;2022-08-24T09:22:37;8.50;;;4.07;;
28762;SDS011;15918;51.270;6.522;2022-08-24T09:25:13;9.20;;;4.95;;
28762;SDS011;15918;51.270;6.522;2022-08-24T09:28:20;8.35;;;4.28;;
28762;SDS011;15918;51.270;6.522;2022-08-24T09:34:06;10.05;;;5.00;;
28762;SDS011;15918;51.270;6.522;2022-08-24T09:42:17;11.15;;;4.78;;
28762;SDS011;15918;51.270;6.522;2022-08-24T09:58:58;9.95;;;5.22;;
28762;SDS011;15918;51.270;6.522;2022-08-24T10:04:39;10.32;;;4.95;;
28762;SDS011;15918;51.270;6.522;2022-08-24T10:15:28;9.18;;;4.18;;
28762;SDS011;15918;51.270;6.522;2022-08-24T10:18:12;5.60;;;3.45;;
28762;SDS011;15918;51.270;6.522;2022-08-24T10:35:23;6.63;;;3.20;;
28762;SDS011;15918;51.270;6.522;2022-08-24T10:38:09;10.32;;;2.97;;
28762;SDS011;15918;51.270;6.522;2022-08-24T10:51:54;5.20;;;2.97;;
28762;SDS011;15918;51.270;6.522;2022-08-24T10:54:27;6.00;;;3.28;;
28762;SDS011;15918;51.270;6.522;2022-08-24T11:04:35;4.95;;;2.67;;
28762;SDS011;15918;51.270;6.522;2022-08-24T11:07:03;5.13;;;2.63;;
28762;SDS011;15918;51.270;6.522;2022-08-24T11:09:49;4.40;;;2.90;;
28762;SDS011;15918;51.270;6.522;2022-08-24T11:12:33;5.75;;;3.10;;
28762;SDS011;15918;51.270;6.522;2022-08-24T11:15:09;5.38;;;2.90;;
28762;SDS011;15918;51.270;6.522;2022-08-24T11:17:57;4.25;;;3.13;;
28762;SDS011;15918;51.270;6.522;2022-08-24T11:20:33;5.75;;;2.90;;
28762;SDS011;15918;51.270;6.522;2022-08-24T11:23:18;9.45;;;3.38;;
28762;SDS011;15918;51.270;6.522;2022-08-24T11:28:39;7.20;;;3.17;;
28762;SDS011;15918;51.270;6.522;2022-08-24T11:31:11;6.22;;;3.28;;
28762;SDS011;15918;51.270;6.522;2022-08-24T11:33:45;5.80;;;3.30;;
28762;SDS011;15918;51.270;6.522;2022-08-24T11:36:20;5.03;;;3.70;;
28762;SDS011;15918;51.270;6.522;2022-08-24T11:39:08;7.75;;;3.55;;
28762;SDS011;15918;51.270;6.522;2022-08-24T11:41:47;6.35;;;3.00;;
28762;SDS011;15918;51.270;6.522;2022-08-24T11:44:30;5.45;;;2.63;;
28762;SDS011;15918;51.270;6.522;2022-08-24T11:55:16;7.60;;;3.25;;
28762;SDS011;15918;51.270;6.522;2022-08-24T12:01:21;6.10;;;3.00;;
28762;SDS011;15918;51.270;6.522;2022-08-24T12:12:57;6.85;;;2.50;;
28762;SDS011;15918;51.270;6.522;2022-08-24T12:15:07;4.47;;;2.70;;
28762;SDS011;15918;51.270;6.522;2022-08-24T12:17:43;3.57;;;2.37;;
28762;SDS011;15918;51.270;6.522;2022-08-24T12:20:30;4.65;;;2.60;;
28762;SDS011;15918;51.270;6.522;2022-08-24T12:23:01;3.80;;;2.33;;
28762;SDS011;15918;51.270;6.522;2022-08-24T12:25:31;3.08;;;2.22;;
28762;SDS011;15918;51.270;6.522;2022-08-24T12:28:39;4.70;;;2.30;;
28762;SDS011;15918;51.270;6.522;2022-08-24T12:31:16;3.10;;;2.30;;
28762;SDS011;15918;51.270;6.522;2022-08-24T12:33:48;3.80;;;2.10;;
28762;SDS011;15918;51.270;6.522;2022-08-24T12:36:20;4.82;;;2.30;;
28762;SDS011;15918;51.270;6.522;2022-08-24T12:39:03;3.15;;;2.08;;
28762;SDS011;15918;51.270;6.522;2022-08-24T12:41:33;3.65;;;2.58;;
28762;SDS011;15918;51.270;6.522;2022-08-24T12:44:09;3.83;;;2.30;;
28762;SDS011;15918;51.270;6.522;2022-08-24T12:46:39;5.10;;;2.20;;
28762;SDS011;15918;51.270;6.522;2022-08-24T12:49:13;2.63;;;2.20;;
28762;SDS011;15918;51.270;6.522;2022-08-24T12:52:08;3.67;;;2.45;;
28762;SDS011;15918;51.270;6.522;2022-08-24T13:00:24;3.10;;;2.80;;
28762;SDS011;15918;51.270;6.522;2022-08-24T13:02:56;3.42;;;2.13;;
28762;SDS011;15918;51.270;6.522;2022-08-24T13:05:26;4.05;;;2.28;;
28762;SDS011;15918;51.270;6.522;2022-08-24T13:08:08;8.13;;;3.15;;
28762;SDS011;15918;51.270;6.522;2022-08-24T13:10:44;4.70;;;2.58;;
28762;SDS011;15918;51.270;6.522;2022-08-24T13:13:21;2.83;;;2.50;;
28762;SDS011;15918;51.270;6.522;2022-08-24T13:16:09;5.10;;;2.25;;
28762;SDS011;15918;51.270;6.522;2022-08-24T13:18:49;3.50;;;2.63;;
28762;SDS011;15918;51.270;6.522;2022-08-24T13:21:34;4.15;;;2.42;;
28762;SDS011;15918;51.270;6.522;2022-08-24T13:29:35;5.05;;;2.25;;
28762;SDS011;15918;51.270;6.522;2022-08-24T13:32:26;4.25;;;2.55;;
28762;SDS011;15918;51.270;6.522;2022-08-24T13:34:59;3.38;;;2.33;;
28762;SDS011;15918;51.270;6.522;2022-08-24T13:37:57;2.47;;;2.07;;
28762;SDS011;15918;51.270;6.522;2022-08-24T13:40:55;3.30;;;2.53;;
28762;SDS011;15918;51.270;6.522;2022-08-24T13:45:56;2.97;;;2.28;;
28762;SDS011;15918;51.270;6.522;2022-08-24T13:51:34;3.33;;;2.45;;
28762;SDS011;15918;51.270;6.522;2022-08-24T13:54:36;3.03;;;2.22;;
28762;SDS011;15918;51.270;6.522;2022-08-24T13:57:17;7.22;;;2.50;;
28762;SDS011;15918;51.270;6.522;2022-08-24T14:05:32;4.78;;;2.50;;
28762;SDS011;15918;51.270;6.522;2022-08-24T14:08:27;2.63;;;2.42;;
28762;SDS011;15918;51.270;6.522;2022-08-24T14:14:07;6.30;;;2.75;;
28762;SDS011;15918;51.270;6.522;2022-08-24T14:17:19;3.22;;;2.40;;
28762;SDS011;15918;51.270;6.522;2022-08-24T14:20:07;5.93;;;2.40;;
28762;SDS011;15918;51.270;6.522;2022-08-24T14:22:56;6.38;;;2.67;;
28762;SDS011;15918;51.270;6.522;2022-08-24T14:25:45;5.53;;;2.40;;
28762;SDS011;15918;51.270;6.522;2022-08-24T14:31:15;5.85;;;2.50;;
28762;SDS011;15918;51.270;6.522;2022-08-24T14:33:58;5.13;;;2.80;;
28762;SDS011;15918;51.270;6.522;2022-08-24T14:36:57;2.95;;;2.47;;
28762;SDS011;15918;51.270;6.522;2022-08-24T14:39:57;4.25;;;2.50;;
28762;SDS011;15918;51.270;6.522;2022-08-24T14:42:40;4.07;;;2.63;;
28762;SDS011;15918;51.270;6.522;2022-08-24T14:51:03;5.28;;;2.58;;
28762;SDS011;15918;51.270;6.522;2022-08-24T14:59:23;3.22;;;2.58;;
28762;SDS011;15918;51.270;6.522;2022-08-24T15:07:38;6.93;;;2.78;;
28762;SDS011;15918;51.270;6.522;2022-08-24T15:10:10;5.40;;;2.60;;
28762;SDS011;15918;51.270;6.522;2022-08-24T15:12:50;4.78;;;2.83;;
28762;SDS011;15918;51.270;6.522;2022-08-24T15:15:26;5.30;;;2.70;;
28762;SDS011;15918;51.270;6.522;2022-08-24T15:17:58;6.53;;;3.13;;
28762;SDS011;15918;51.270;6.522;2022-08-24T15:23:45;4.47;;;2.55;;
28762;SDS011;15918;51.270;6.522;2022-08-24T15:29:08;2.72;;;2.20;;
28762;SDS011;15918;51.270;6.522;2022-08-24T15:31:42;4.60;;;2.40;;
28762;SDS011;15918;51.270;6.522;2022-08-24T15:34:36;5.78;;;3.08;;
28762;SDS011;15918;51.270;6.522;2022-08-24T15:37:04;3.25;;;2.63;;
28762;SDS011;15918;51.270;6.522;2022-08-24T15:39:31;2.92;;;2.63;;
28762;SDS011;15918;51.270;6.522;2022-08-24T15:41:57;2.88;;;2.60;;
28762;SDS011;15918;51.270;6.522;2022-08-24T15:44:27;2.72;;;2.45;;
28762;SDS011;15918;51.270;6.522;2022-08-24T15:46:57;5.47;;;2.60;;
28762;SDS011;15918;51.270;6.522;2022-08-24T15:52:06;3.25;;;2.28;;
28762;SDS011;15918;51.270;6.522;2022-08-24T15:54:40;3.22;;;2.50;;
28762;SDS011;15918;51.270;6.522;2022-08-24T15:57:10;3.83;;;2.45;;
28762;SDS011;15918;51.270;6.522;2022-08-24T15:59:50;6.20;;;2.60;;
28762;SDS011;15918;51.270;6.522;2022-08-24T16:02:23;4.20;;;2.72;;
28762;SDS011;15918;51.270;6.522;2022-08-24T16:10:29;3.20;;;2.33;;
28762;SDS011;15918;51.270;6.522;2022-08-24T16:21:21;7.70;;;2.22;;
28762;SDS011;15918;51.270;6.522;2022-08-24T16:23:52;4.47;;;2.28;;
28762;SDS011;15918;51.270;6.522;2022-08-24T16:26:28;5.63;;;2.47;;
28762;SDS011;15918;51.270;6.522;2022-08-24T16:28:56;3.85;;;2.30;;
28762;SDS011;15918;51.270;6.522;2022-08-24T16:34:18;4.30;;;2.33;;
28762;SDS011;15918;51.270;6.522;2022-08-24T16:36:47;4.75;;;2.70;;
28762;SDS011;15918;51.270;6.522;2022-08-24T16:39:13;3.35;;;2.17;;
28762;SDS011;15918;51.270;6.522;2022-08-24T16:41:38;2.08;;;1.92;;
28762;SDS011;15918;51.270;6.522;2022-08-24T16:44:06;3.03;;;2.10;;
28762;SDS011;15918;51.270;6.522;2022-08-24T16:46:34;2.90;;;2.35;;
28762;SDS011;15918;51.270;6.522;2022-08-24T16:49:00;2.40;;;2.05;;
28762;SDS011;15918;51.270;6.522;2022-08-24T16:51:25;2.45;;;2.25;;
28762;SDS011;15918;51.270;6.522;2022-08-24T16:53:51;3.97;;;1.92;;
28762;SDS011;15918;51.270;6.522;2022-08-24T16:56:18;4.53;;;1.90;;
28762;SDS011;15918;51.270;6.522;2022-08-24T16:58:44;2.47;;;2.05;;
28762;SDS011;15918;51.270;6.522;2022-08-24T17:01:11;4.00;;;2.33;;
28762;SDS011;15918;51.270;6.522;2022-08-24T17:03:37;2.92;;;2.03;;
28762;SDS011;15918;51.270;6.522;2022-08-24T17:06:03;4.80;;;2.08;;
28762;SDS011;15918;51.270;6.522;2022-08-24T17:08:29;2.60;;;1.80;;
28762;SDS011;15918;51.270;6.522;2022-08-24T17:10:55;5.28;;;2.05;;
28762;SDS011;15918;51.270;6.522;2022-08-24T17:13:21;2.42;;;1.63;;
28762;SDS011;15918;51.270;6.522;2022-08-24T17:15:47;4.63;;;2.38;;
28762;SDS011;15918;51.270;6.522;2022-08-24T17:18:13;1.83;;;1.70;;
28762;SDS011;15918;51.270;6.522;2022-08-24T17:20:39;2.58;;;2.22;;
28762;SDS011;15918;51.270;6.522;2022-08-24T17:23:05;3.00;;;1.92;;
28762;SDS011;15918;51.270;6.522;2022-08-24T17:25:32;2.28;;;1.85;;
28762;SDS011;15918;51.270;6.522;2022-08-24T17:27:58;2.53;;;1.92;;
28762;SDS011;15918;51.270;6.522;2022-08-24T17:30:25;4.43;;;1.83;;
28762;SDS011;15918;51.270;6.522;2022-08-24T17:32:50;3.33;;;2.10;;
28762;SDS011;15918;51.270;6.522;2022-08-24T17:35:17;4.57;;;2.13;;
28762;SDS011;15918;51.270;6.522;2022-08-24T17:37:46;3.28;;;2.22;;
28762;SDS011;15918;51.270;6.522;2022-08-24T17:40:13;3.38;;;1.67;;
28762;SDS011;15918;51.270;6.522;2022-08-24T17:42:40;6.45;;;2.28;;
28762;SDS011;15918;51.270;6.522;2022-08-24T17:45:06;1.95;;;1.83;;
28762;SDS011;15918;51.270;6.522;2022-08-24T17:47:33;2.75;;;1.98;;
28762;SDS011;15918;51.270;6.522;2022-08-24T17:49:59;2.78;;;1.60;;
28762;SDS011;15918;51.270;6.522;2022-08-24T17:52:25;3.42;;;2.00;;
28762;SDS011;15918;51.270;6.522;2022-08-24T17:54:51;2.22;;;1.65;;
28762;SDS011;15918;51.270;6.522;2022-08-24T17:57:17;2.47;;;2.00;;
28762;SDS011;15918;51.270;6.522;2022-08-24T17:59:47;4.03;;;2.38;;
28762;SDS011;15918;51.270;6.522;2022-08-24T18:02:14;3.10;;;2.20;;
28762;SDS011;15918;51.270;6.522;2022-08-24T18:04:40;7.25;;;2.45;;
28762;SDS011;15918;51.270;6.522;2022-08-24T18:07:08;11.25;;;2.33;;
28762;SDS011;15918;51.270;6.522;2022-08-24T18:09:43;7.47;;;2.42;;
28762;SDS011;15918;51.270;6.522;2022-08-24T18:12:12;2.30;;;1.98;;